Time;durP1;ratioP1;P1;durP2;ratioP2;P2;SDS_P1;SDS_P2;PMS_P1;PMS_P2;Temp;Humidity;BMP_temperature;BMP_pressure;BME280_temperature;BME280_humidity;BME280_pressure;Samples;Min_cycle;Max_cycle;Signal;HPM_P1;HPM_P2
2023/01/23 00:00:11;;;;;;;6.73;6.03;;;;;;;-3.89;98.91;103940.47;5001709;28;20065;-75
2023/01/23 00:02:37;;;;;;;8.48;6.30;;;;;;;-3.84;98.73;103947.44;4984791;28;20086;-74
2023/01/23 00:05:03;;;;;;;8.33;7.03;;;;;;;-3.81;98.67;103968.28;5002548;28;20532;-72
2023/01/23 00:07:28;;;;;;;7.77;6.40;;;;;;;-3.90;98.65;103951.75;5004452;28;20030;-72
2023/01/23 00:09:54;;;;;;;6.83;5.70;;;;;;;-3.86;99.83;103963.91;5003314;28;20026;-75
2023/01/23 00:12:19;;;;;;;9.20;7.30;;;;;;;-3.87;99.66;103946.56;5002423;28;20061;-75
2023/01/23 00:14:45;;;;;;;7.40;6.60;;;;;;;-3.75;100.00;103951.84;5000947;28;20034;-74
2023/01/23 00:17:10;;;;;;;8.33;6.67;;;;;;;-3.78;99.64;103941.38;4999495;28;20035;-73
2023/01/23 00:19:36;;;;;;;8.50;6.63;;;;;;;-3.68;99.49;103955.34;4999026;28;20425;-73
2023/01/23 00:22:01;;;;;;;8.43;7.10;;;;;;;-3.70;99.44;103944.03;4998768;28;20030;-72
2023/01/23 00:24:27;;;;;;;12.00;7.63;;;;;;;-3.66;99.25;103933.63;4998624;28;20458;-73
2023/01/23 00:26:53;;;;;;;9.87;7.10;;;;;;;-3.54;99.49;103951.03;4998842;28;20049;-73
2023/01/23 00:29:18;;;;;;;9.07;7.50;;;;;;;-3.53;98.98;103950.19;4998664;28;20088;-74
2023/01/23 00:31:44;;;;;;;10.77;8.33;;;;;;;-3.50;99.52;103947.56;4998999;28;20125;-73
2023/01/23 00:34:14;;;;;;;9.50;6.97;;;;;;;-3.41;99.79;103949.38;4999104;28;20022;-74
2023/01/23 00:36:42;;;;;;;11.57;8.43;;;;;;;-3.39;99.37;103950.25;4999352;28;20117;-75
2023/01/23 00:39:18;;;;;;;10.35;8.60;;;;;;;-3.42;98.91;103947.63;5000094;28;20118;-75
2023/01/23 00:41:45;;;;;;;9.35;7.57;;;;;;;-3.49;98.41;103955.41;5002039;28;20019;-72
2023/01/23 00:44:11;;;;;;;9.35;7.25;;;;;;;-3.42;98.63;103961.53;5001084;28;20081;-72
2023/01/23 00:46:36;;;;;;;11.07;8.03;;;;;;;-3.34;98.43;103964.16;4981242;28;20031;-73
2023/01/23 00:49:03;;;;;;;10.67;7.87;;;;;;;-3.28;98.26;103952.00;4995201;28;20518;-73
2023/01/23 00:51:28;;;;;;;11.02;9.02;;;;;;;-3.32;98.16;103945.03;4994995;28;20054;-74
2023/01/23 00:53:55;;;;;;;12.67;10.23;;;;;;;-3.30;98.27;103945.03;4995812;28;20157;-71
2023/01/23 00:56:21;;;;;;;14.43;10.82;;;;;;;-3.24;98.13;103945.06;4995991;28;20093;-72
2023/01/23 00:58:47;;;;;;;13.35;9.50;;;;;;;-3.25;98.22;103956.34;4996344;28;20034;-73
2023/01/23 01:01:14;;;;;;;13.73;10.10;;;;;;;-3.26;97.15;103960.69;4995456;28;20057;-73
2023/01/23 01:03:40;;;;;;;16.70;11.35;;;;;;;-3.31;97.46;103943.31;4995245;28;20034;-74
2023/01/23 01:06:05;;;;;;;10.90;8.77;;;;;;;-3.33;97.75;103934.63;4994892;28;20033;-74
2023/01/23 01:08:31;;;;;;;12.77;10.57;;;;;;;-3.35;96.66;103946.78;4995180;28;20095;-73
2023/01/23 01:10:57;;;;;;;13.33;9.90;;;;;;;-3.51;97.28;103951.91;4977505;28;20033;-76
2023/01/23 01:13:23;;;;;;;13.60;10.35;;;;;;;-3.53;97.95;103944.97;4990589;28;20027;-74
2023/01/23 01:15:53;;;;;;;13.32;10.18;;;;;;;-3.42;98.53;103939.81;4958401;28;20047;-73
2023/01/23 01:18:20;;;;;;;12.63;10.00;;;;;;;-3.35;98.18;103926.78;4975631;28;20479;-74
2023/01/23 01:20:47;;;;;;;12.45;9.70;;;;;;;-3.29;98.39;103924.19;4975203;28;20070;-73
2023/01/23 01:23:13;;;;;;;12.45;8.27;;;;;;;-3.25;97.43;103905.09;4975458;28;20125;-73
2023/01/23 01:25:39;;;;;;;10.20;8.30;;;;;;;-3.25;97.67;103910.28;4975608;28;20062;-74
2023/01/23 01:28:07;;;;;;;10.40;8.77;;;;;;;-3.23;96.97;103910.31;4974747;28;20037;-73
2023/01/23 01:30:33;;;;;;;12.52;8.48;;;;;;;-3.21;97.15;103913.78;4975135;28;20374;-73
2023/01/23 01:32:58;;;;;;;10.77;8.90;;;;;;;-3.17;97.26;103912.94;4975125;28;20042;-74
2023/01/23 01:35:24;;;;;;;12.00;9.00;;;;;;;-3.59;96.85;103865.06;4975318;28;20438;-74
2023/01/23 01:37:50;;;;;;;12.47;9.50;;;;;;;-3.49;97.28;103920.66;4975505;28;20035;-74
2023/01/23 01:40:19;;;;;;;11.70;8.93;;;;;;;-3.61;98.27;103911.06;4975578;28;20117;-74
2023/01/23 01:43:03;;;;;;;11.20;8.30;;;;;;;-3.60;99.69;103907.59;4975315;28;20061;-74
2023/01/23 01:46:02;;;;;;;12.50;8.32;;;;;;;-3.56;99.12;103916.28;4975339;28;20034;-74
2023/01/23 01:48:55;;;;;;;14.02;9.50;;;;;;;-3.58;99.81;103908.47;4976401;28;20161;-72
2023/01/23 01:51:25;;;;;;;11.95;8.70;;;;;;;-3.55;99.51;103910.22;4974818;28;20035;-74
2023/01/23 01:54:07;;;;;;;12.25;9.90;;;;;;;-3.51;99.67;103902.41;4974910;28;20146;-75
2023/01/23 01:56:38;;;;;;;12.98;9.05;;;;;;;-3.38;99.83;103911.16;4968075;28;20030;-72
2023/01/23 01:59:04;;;;;;;11.77;8.63;;;;;;;-3.34;99.34;103907.69;4983862;28;20041;-73
2023/01/23 02:01:30;;;;;;;15.13;11.10;;;;;;;-3.30;99.53;103906.81;4984023;28;20377;-72
2023/01/23 02:03:56;;;;;;;16.33;11.07;;;;;;;-3.20;98.94;103912.91;4967154;28;20086;-74
2023/01/23 02:06:23;;;;;;;14.20;10.70;;;;;;;-3.25;98.58;103896.41;4984615;28;20027;-73
2023/01/23 02:09:03;;;;;;;22.60;13.05;;;;;;;-3.33;98.83;103877.28;4981748;28;20481;-73
2023/01/23 02:11:32;;;;;;;14.63;10.48;;;;;;;-3.34;98.44;103884.22;4957647;28;20023;-75
2023/01/23 02:13:57;;;;;;;14.33;10.37;;;;;;;-3.25;98.86;103891.19;4974856;28;20585;-72
2023/01/23 02:16:30;;;;;;;16.57;11.00;;;;;;;-3.22;98.48;103896.41;4974392;28;20061;-76
2023/01/23 02:19:06;;;;;;;16.48;11.68;;;;;;;-3.32;98.88;103885.09;4974516;28;20031;-72
2023/01/23 02:21:36;;;;;;;18.20;10.75;;;;;;;-3.19;99.55;103891.19;4974313;28;20117;-73
2023/01/23 02:24:04;;;;;;;16.25;11.90;;;;;;;-3.19;99.28;103896.41;4974334;28;20081;-75
2023/01/23 02:26:35;;;;;;;19.77;13.35;;;;;;;-3.36;99.54;103872.06;4974515;28;20054;-73
2023/01/23 02:29:38;;;;;;;15.52;10.65;;;;;;;-3.34;100.00;103871.19;4974403;28;20046;-75
2023/01/23 02:32:04;;;;;;;21.55;13.18;;;;;;;-3.29;100.00;103879.03;4974009;28;20520;-73
2023/01/23 02:34:29;;;;;;;20.48;12.73;;;;;;;-3.30;99.59;103887.69;4974021;28;20039;-75
2023/01/23 02:36:55;;;;;;;19.67;12.80;;;;;;;-3.32;99.88;103894.66;4974452;28;20117;-74
2023/01/23 02:39:21;;;;;;;19.60;13.17;;;;;;;-3.31;99.58;103918.13;4956441;28;20459;-76
2023/01/23 02:41:49;;;;;;;19.90;13.47;;;;;;;-3.31;99.72;103910.28;4974035;28;20062;-72
2023/01/23 02:44:20;;;;;;;19.00;11.80;;;;;;;-3.38;99.92;103900.72;4974098;28;20050;-72
2023/01/23 02:46:45;;;;;;;19.73;12.77;;;;;;;-3.34;100.00;103922.44;4977641;28;20035;-75
2023/01/23 02:49:11;;;;;;;20.77;13.53;;;;;;;-3.25;99.53;103927.69;4974699;28;20404;-73
2023/01/23 02:51:37;;;;;;;19.90;12.67;;;;;;;-3.27;99.59;103929.41;4957761;28;20046;-74
2023/01/23 02:54:05;;;;;;;22.47;13.47;;;;;;;-3.38;99.68;103915.50;4974674;28;20038;-73
2023/01/23 02:56:30;;;;;;;21.93;13.30;;;;;;;-3.44;100.00;103901.59;4974095;28;20043;-75
2023/01/23 03:01:40;;;;;;;22.95;14.25;;;;;;;-3.35;99.92;103913.75;4973893;28;20121;-74
2023/01/23 03:04:05;;;;;;;24.40;14.17;;;;;;;-3.46;100.00;103892.91;4974711;28;20118;-76
2023/01/23 03:06:37;;;;;;;27.80;14.57;;;;;;;-3.35;100.00;103910.28;4973780;28;20035;-76
2023/01/23 03:09:08;;;;;;;20.73;12.95;;;;;;;-3.31;99.96;103902.47;4955893;28;20027;-73
2023/01/23 03:11:35;;;;;;;25.27;14.55;;;;;;;-3.46;100.00;103866.84;4973922;28;20066;-74
2023/01/23 03:14:01;;;;;;;23.17;14.05;;;;;;;-3.32;99.80;103897.25;4956474;28;20035;-72
2023/01/23 03:16:27;;;;;;;23.73;14.60;;;;;;;-3.40;99.44;103897.25;4973360;28;20035;-71
2023/01/23 03:18:53;;;;;;;22.93;13.93;;;;;;;-3.46;99.52;103892.91;4973359;28;20037;-71
2023/01/23 03:21:19;;;;;;;21.95;14.07;;;;;;;-3.45;100.00;103889.44;4973089;28;20258;-76
2023/01/23 03:23:46;;;;;;;24.03;13.77;;;;;;;-3.36;100.00;103887.69;4972932;28;20530;-73
2023/01/23 03:26:12;;;;;;;23.30;13.48;;;;;;;-3.55;99.07;103853.78;4955594;28;20085;-74
2023/01/23 03:31:39;;;;;;;23.42;14.70;;;;;;;-3.45;98.46;103894.63;4932279;29;20484;-74
2023/01/23 03:34:05;;;;;;;22.17;13.50;;;;;;;-3.59;98.64;103896.31;4964603;28;20058;-74
2023/01/23 03:36:31;;;;;;;22.27;14.53;;;;;;;-3.63;99.22;103891.97;4973168;28;20027;-75
2023/01/23 03:41:40;;;;;;;24.55;14.25;;;;;;;-3.76;99.96;103911.00;4972852;28;20423;-74
2023/01/23 03:44:07;;;;;;;27.20;15.38;;;;;;;-3.72;100.00;103910.19;4973145;28;20486;-77
2023/01/23 03:46:33;;;;;;;26.23;15.00;;;;;;;-3.81;100.00;103884.09;4955610;28;20035;-73
2023/01/23 03:48:59;;;;;;;27.80;14.07;;;;;;;-3.61;100.00;103916.28;4955873;28;20035;-72
2023/01/23 03:51:25;;;;;;;26.67;16.03;;;;;;;-3.53;100.00;103917.19;4973159;28;20130;-73
2023/01/23 03:53:52;;;;;;;30.00;15.50;;;;;;;-3.62;100.00;103901.53;4973265;28;20050;-72
2023/01/23 03:56:18;;;;;;;28.75;18.08;;;;;;;-3.70;100.00;103905.84;4973083;28;20034;-75
2023/01/23 03:58:44;;;;;;;26.57;14.20;;;;;;;-3.67;100.00;103912.81;4973295;28;20427;-72
2023/01/23 04:01:09;;;;;;;27.93;14.40;;;;;;;-3.63;100.00;103910.22;4972803;28;20057;-73
2023/01/23 04:03:35;;;;;;;29.03;17.23;;;;;;;-3.62;100.00;103906.72;4972828;28;20051;-75
2023/01/23 04:06:00;;;;;;;26.43;14.50;;;;;;;-3.57;100.00;103905.00;4972803;28;20031;-73
2023/01/23 04:08:27;;;;;;;30.87;14.67;;;;;;;-3.57;100.00;103880.69;4973167;28;20023;-74
2023/01/23 04:11:00;;;;;;;29.50;16.33;;;;;;;-3.51;100.00;103898.94;4973179;28;20121;-76
2023/01/23 04:13:26;;;;;;;24.38;14.23;;;;;;;-3.45;100.00;103889.44;4972965;28;20129;-75
2023/01/23 04:15:51;;;;;;;29.60;16.83;;;;;;;-3.44;100.00;103896.38;4955960;28;20058;-72
2023/01/23 04:18:17;;;;;;;30.60;16.17;;;;;;;-3.36;100.00;103901.59;4973076;28;20033;-74
2023/01/23 04:24:23;;;;;;;27.92;17.27;;;;;;;-3.41;100.00;103895.50;4976392;28;20121;-74
2023/01/23 04:26:49;;;;;;;27.77;14.77;;;;;;;-3.36;100.00;103901.59;4959214;28;20113;-73
2023/01/23 04:33:01;;;;;;;26.35;15.80;;;;;;;-3.67;100.00;103866.78;4975200;28;20054;-74
2023/01/23 04:35:35;;;;;;;25.58;15.30;;;;;;;-3.78;100.00;103868.47;4940617;28;20390;-75
2023/01/23 04:41:53;;;;;;;26.60;14.75;;;;;;;-3.55;100.00;103902.41;4974440;28;20458;-78
2023/01/23 04:44:19;;;;;;;30.98;16.38;;;;;;;-3.76;100.00;103861.53;4976583;28;20031;-74
2023/01/23 04:46:46;;;;;;;22.77;14.73;;;;;;;-3.52;100.00;103895.47;4958660;28;20105;-73
2023/01/23 04:49:12;;;;;;;25.25;15.13;;;;;;;-3.37;100.00;103891.19;4976070;28;20027;-73
2023/01/23 04:51:39;;;;;;;28.77;15.23;;;;;;;-3.31;100.00;103881.63;4976133;28;20066;-75
2023/01/23 04:54:06;;;;;;;17.77;10.77;;;;;;;-3.20;100.00;103894.66;4977139;28;20038;-75
2023/01/23 04:56:31;;;;;;;26.27;13.80;;;;;;;-3.22;100.00;103876.41;4977065;28;20033;-74
2023/01/23 04:58:57;;;;;;;23.77;13.33;;;;;;;-3.22;100.00;103875.53;4976617;28;20371;-75
2023/01/23 05:01:22;;;;;;;31.03;14.13;;;;;;;-3.29;100.00;103865.97;4975848;28;20379;-73
2023/01/23 05:03:50;;;;;;;27.73;15.70;;;;;;;-3.46;100.00;103877.28;4976177;28;20579;-74
2023/01/23 05:06:15;;;;;;;24.67;14.45;;;;;;;-3.65;100.00;103877.22;4976070;28;20038;-74
2023/01/23 05:08:41;;;;;;;28.93;16.53;;;;;;;-3.76;100.00;103877.16;4975981;28;20026;-73
2023/01/23 05:11:06;;;;;;;29.13;15.60;;;;;;;-3.79;100.00;103879.75;4958186;28;20117;-75
2023/01/23 05:13:32;;;;;;;23.97;15.33;;;;;;;-3.97;100.00;103843.25;4958668;28;20029;-72
2023/01/23 05:15:57;;;;;;;28.53;15.13;;;;;;;-3.78;100.00;103874.53;4980953;28;20055;-72
2023/01/23 05:18:23;;;;;;;29.60;17.47;;;;;;;-3.82;100.00;103872.78;4976795;28;20037;-73
2023/01/23 05:20:48;;;;;;;31.23;16.83;;;;;;;-3.82;100.00;103877.13;4975950;28;20068;-74
2023/01/23 05:23:14;;;;;;;29.97;14.63;;;;;;;-3.98;100.00;103864.94;4959225;28;20027;-74
2023/01/23 05:25:39;;;;;;;31.43;15.57;;;;;;;-3.99;100.00;103879.69;4975849;28;20037;-74
2023/01/23 05:28:05;;;;;;;34.50;16.33;;;;;;;-4.40;100.00;103819.63;4975748;28;20027;-75
2023/01/23 05:30:30;;;;;;;32.20;15.57;;;;;;;-3.99;100.00;103882.28;4976508;28;20120;-73
2023/01/23 05:32:56;;;;;;;31.50;15.43;;;;;;;-3.91;100.00;103872.78;4976398;28;20121;-74
2023/01/23 05:35:21;;;;;;;33.20;15.73;;;;;;;-3.98;100.00;103870.16;4958665;28;20467;-73
2023/01/23 05:37:51;;;;;;;28.63;14.82;;;;;;;-3.87;100.00;103879.72;4975399;28;20527;-73
2023/01/23 05:43:14;;;;;;;28.25;14.75;;;;;;;-3.54;100.00;103881.56;4948714;28;20036;-75
2023/01/23 05:49:24;;;;;;;29.30;15.25;;;;;;;-3.89;100.00;103823.31;4974532;28;20037;-74
2023/01/23 05:51:50;;;;;;;30.87;13.53;;;;;;;-3.65;100.00;103865.06;4957793;28;20047;-76
2023/01/23 05:54:20;;;;;;;26.23;15.50;;;;;;;-3.63;100.00;103876.34;4975332;28;20459;-76
2023/01/23 05:56:45;;;;;;;29.43;14.57;;;;;;;-3.60;100.00;103889.38;4977269;28;20074;-74
2023/01/23 05:59:11;;;;;;;28.83;14.40;;;;;;;-3.56;100.00;103885.91;4977369;28;20037;-74
2023/01/23 06:01:36;;;;;;;27.93;13.33;;;;;;;-3.50;100.00;103874.63;4977051;28;20038;-76
2023/01/23 06:04:01;;;;;;;32.73;16.93;;;;;;;-3.62;100.00;103867.66;4976199;28;20034;-77
2023/01/23 06:06:27;;;;;;;25.67;13.97;;;;;;;-3.52;100.00;103885.03;4975617;28;20471;-76
2023/01/23 06:08:52;;;;;;;30.07;15.23;;;;;;;-3.40;100.00;103880.75;4975127;28;20026;-78
2023/01/23 06:11:18;;;;;;;25.13;13.90;;;;;;;-3.27;100.00;103887.72;4976233;28;20076;-73
2023/01/23 06:13:46;;;;;;;28.43;13.90;;;;;;;-3.16;100.00;103881.66;4977148;28;20026;-76
2023/01/23 06:16:12;;;;;;;23.55;12.73;;;;;;;-3.02;100.00;103889.47;4975859;28;20531;-76
2023/01/23 06:18:37;;;;;;;22.90;14.17;;;;;;;-3.05;99.43;103889.47;4975482;28;20490;-75
2023/01/23 06:21:04;;;;;;;29.70;16.07;;;;;;;-3.02;99.54;103884.25;4976079;28;20030;-74
2023/01/23 06:23:29;;;;;;;28.63;15.18;;;;;;;-3.00;99.35;103882.53;4975608;28;20030;-74
2023/01/23 06:25:58;;;;;;;36.07;18.37;;;;;;;-3.21;98.43;103892.94;4975473;28;20474;-76
2023/01/23 06:28:24;;;;;;;30.65;14.60;;;;;;;-3.27;99.52;103888.56;4975150;28;20031;-74
2023/01/23 06:30:49;;;;;;;30.87;14.30;;;;;;;-3.34;100.00;103878.16;4978278;28;20391;-73
2023/01/23 06:33:14;;;;;;;25.90;13.90;;;;;;;-3.30;100.00;103893.78;4979340;28;20034;-77
2023/01/23 06:35:40;;;;;;;34.97;15.73;;;;;;;-3.32;100.00;103892.03;4975099;28;20061;-77
2023/01/23 06:38:26;;;;;;;29.10;16.40;;;;;;;-3.27;100.00;103866.84;4979135;28;20538;-76
2023/01/23 06:40:52;;;;;;;29.55;14.52;;;;;;;-3.13;100.00;103875.56;4984202;28;20058;-75
2023/01/23 06:43:18;;;;;;;32.60;17.75;;;;;;;-3.13;99.73;103891.22;4981688;28;20033;-73
2023/01/23 06:45:45;;;;;;;29.90;16.47;;;;;;;-3.13;100.00;103886.88;4982140;28;20026;-75
2023/01/23 06:48:10;;;;;;;27.00;16.55;;;;;;;-3.21;99.82;103885.09;4981746;28;20022;-76
2023/01/23 06:50:40;;;;;;;32.83;17.23;;;;;;;-3.23;99.98;103905.09;4976672;28;20595;-78
2023/01/23 06:53:06;;;;;;;33.03;17.27;;;;;;;-3.29;99.84;103905.94;4977494;28;20367;-76
2023/01/23 06:55:32;;;;;;;35.15;16.33;;;;;;;-3.32;100.00;103905.06;4977761;28;20047;-75
2023/01/23 06:57:58;;;;;;;33.45;16.75;;;;;;;-3.39;100.00;103900.72;4977312;28;20049;-77
2023/01/23 07:00:24;;;;;;;39.60;15.73;;;;;;;-3.45;100.00;103899.84;4959789;28;20460;-74
2023/01/23 07:02:51;;;;;;;32.35;19.55;;;;;;;-3.48;100.00;103888.53;4976849;28;20031;-75
2023/01/23 07:05:16;;;;;;;30.63;16.25;;;;;;;-3.45;100.00;103894.63;4976822;28;20098;-76
2023/01/23 07:07:42;;;;;;;34.37;17.20;;;;;;;-3.51;100.00;103901.53;4960830;28;20495;-79
2023/01/23 07:10:09;;;;;;;29.67;17.10;;;;;;;-3.61;100.00;103892.84;4977756;28;20138;-75
2023/01/23 07:12:34;;;;;;;31.08;16.73;;;;;;;-3.50;100.00;103917.19;4979820;28;20364;-75
2023/01/23 07:15:00;;;;;;;31.93;17.03;;;;;;;-3.46;100.00;103905.94;4990923;28;20037;-75
2023/01/23 07:17:26;;;;;;;29.50;15.40;;;;;;;-3.36;100.00;103900.72;4983830;28;20031;-76
2023/01/23 07:19:51;;;;;;;34.17;17.03;;;;;;;-3.31;100.00;103896.38;4974711;28;20095;-72
2023/01/23 07:22:19;;;;;;;36.07;19.17;;;;;;;-3.44;100.00;103885.97;4991803;28;20266;-76
2023/01/23 07:24:44;;;;;;;32.65;16.90;;;;;;;-3.40;100.00;103891.16;4994220;28;20027;-76
2023/01/23 07:27:10;;;;;;;38.03;20.37;;;;;;;-3.46;100.00;103874.66;4977819;28;20035;-76
2023/01/23 07:29:35;;;;;;;36.47;19.20;;;;;;;-3.38;100.00;103879.88;4980128;28;20023;-75
2023/01/23 07:32:01;;;;;;;30.03;16.90;;;;;;;-3.47;100.00;103865.09;4948500;28;20037;-75
2023/01/23 07:34:30;;;;;;;30.97;16.33;;;;;;;-3.47;100.00;103861.59;4962155;28;20026;-75
2023/01/23 07:36:55;;;;;;;30.88;16.65;;;;;;;-3.41;100.00;103859.03;4943820;28;20034;-73
2023/01/23 07:39:26;;;;;;;37.03;18.00;;;;;;;-3.42;100.00;103843.41;4940840;28;20039;-75
2023/01/23 07:41:55;;;;;;;31.08;16.80;;;;;;;-3.22;100.00;103878.16;4956978;28;20061;-76
2023/01/23 07:44:21;;;;;;;32.53;17.50;;;;;;;-3.35;100.00;103853.81;4975271;28;20118;-76
2023/01/23 07:46:48;;;;;;;34.75;16.83;;;;;;;-3.43;100.00;103832.09;4979191;28;20066;-75
2023/01/23 07:49:14;;;;;;;33.50;17.27;;;;;;;-3.16;100.00;103859.94;4962608;28;20027;-74
2023/01/23 07:51:41;;;;;;;34.75;19.30;;;;;;;-3.31;100.00;103826.03;4988321;28;20033;-74
2023/01/23 07:54:09;;;;;;;40.33;20.23;;;;;;;-3.13;100.00;103867.75;4994381;28;20033;-75
2023/01/23 07:56:44;;;;;;;34.55;19.23;;;;;;;-3.27;100.00;103861.66;4981166;28;20034;-78
2023/01/23 07:59:13;;;;;;;34.97;18.67;;;;;;;-3.29;100.00;103858.16;4978970;28;20102;-76
2023/01/23 08:04:46;;;;;;;30.88;16.63;;;;;;;-2.96;100.00;103862.53;4968429;28;20046;-78
2023/01/23 08:08:09;;;;;;;40.35;18.15;;;;;;;-2.97;100.00;103866.88;4966242;28;20034;-75
2023/01/23 08:10:35;;;;;;;40.33;16.65;;;;;;;-3.33;100.00;103809.53;4906673;29;20561;-75
2023/01/23 08:13:00;;;;;;;33.40;16.83;;;;;;;-2.95;100.00;103857.31;4943039;29;20102;-75
2023/01/23 08:15:26;;;;;;;33.57;16.53;;;;;;;-2.90;100.00;103847.75;4967188;28;20395;-75
2023/01/23 08:17:52;;;;;;;33.67;18.17;;;;;;;-2.77;100.00;103860.78;4980412;28;20042;-73
2023/01/23 08:20:18;;;;;;;34.33;18.35;;;;;;;-2.77;100.00;103858.19;4995314;28;20072;-77
2023/01/23 08:22:51;;;;;;;36.97;19.60;;;;;;;-2.72;100.00;103848.59;4972676;28;20053;-78
2023/01/23 08:25:17;;;;;;;35.33;19.03;;;;;;;-2.56;100.00;103860.78;4963109;28;20074;-75
2023/01/23 08:27:46;;;;;;;38.30;20.17;;;;;;;-2.57;99.73;103857.28;4941870;28;20038;-76
2023/01/23 08:30:37;;;;;;;37.47;20.65;;;;;;;-2.44;100.00;103855.50;4928948;29;20345;-79
2023/01/23 08:40:12;;;;;;;43.03;22.63;;;;;;;-2.33;98.81;103853.72;4966950;23;20054;-79
2023/01/23 08:42:39;;;;;;;44.00;21.00;;;;;;;-2.30;98.71;103855.50;4996377;28;20577;-79
2023/01/23 08:45:06;;;;;;;39.55;21.40;;;;;;;-2.35;98.77;103858.09;5006504;28;20043;-76
2023/01/23 08:47:35;;;;;;;34.97;18.73;;;;;;;-2.43;98.20;103845.94;5007653;28;20125;-74
2023/01/23 08:50:04;;;;;;;;;;;;;;;-2.29;98.22;103862.44;5005610;28;20022;-80
2023/01/23 08:52:30;;;;;;;34.10;17.25;;;;;;;-2.40;98.65;103844.19;4980850;28;19910;-79
2023/01/23 08:54:55;;;;;;;40.40;19.83;;;;;;;-2.30;98.69;103856.38;4983706;28;20031;-77
2023/01/23 08:57:21;;;;;;;36.57;17.60;;;;;;;-2.41;98.15;103847.69;5004118;28;20041;-78
2023/01/23 08:59:46;;;;;;;35.17;18.00;;;;;;;-2.41;98.31;103845.06;4987651;28;20065;-78
2023/01/23 09:02:12;;;;;;;30.47;16.50;;;;;;;-2.34;98.76;103856.34;5004180;28;20018;-75
2023/01/23 09:04:37;;;;;;;29.57;16.03;;;;;;;-2.32;99.02;103847.63;5004859;28;20109;-76
2023/01/23 09:07:03;;;;;;;41.40;21.07;;;;;;;-2.45;98.21;103848.56;4998151;28;20098;-77
2023/01/23 09:09:28;;;;;;;31.23;17.00;;;;;;;-2.43;99.57;103852.03;4995105;28;20018;-77
2023/01/23 09:11:54;;;;;;;27.43;14.83;;;;;;;-2.45;99.33;103839.88;5008700;28;20041;-76
2023/01/23 09:14:20;;;;;;;34.93;16.33;;;;;;;-2.36;98.57;103855.50;5015557;28;20415;-76
2023/01/23 09:16:45;;;;;;;30.47;15.57;;;;;;;-2.39;99.17;103866.81;4993543;28;20093;-77
2023/01/23 09:19:11;;;;;;;30.73;16.43;;;;;;;-2.41;98.67;103865.06;4974613;28;20092;-77
2023/01/23 09:21:37;;;;;;;28.77;15.57;;;;;;;-2.33;99.02;103874.63;5001286;28;20046;-76
2023/01/23 09:24:03;;;;;;;30.77;15.03;;;;;;;-2.47;98.74;103841.59;4993526;28;20035;-77
2023/01/23 09:26:29;;;;;;;34.43;17.00;;;;;;;-2.46;98.98;103854.66;4976258;28;20707;-76
2023/01/23 09:28:54;;;;;;;31.93;18.00;;;;;;;-2.45;99.78;103851.16;4999347;28;20082;-77
2023/01/23 09:31:20;;;;;;;27.97;15.33;;;;;;;-2.33;99.66;103845.03;4978049;28;20110;-77
2023/01/23 09:33:47;;;;;;;26.70;15.23;;;;;;;-2.22;98.75;103864.16;5010952;28;20037;-78
2023/01/23 09:36:12;;;;;;;29.60;16.92;;;;;;;-2.16;98.80;103863.28;5014918;28;20029;-77
2023/01/23 09:38:38;;;;;;;35.03;16.73;;;;;;;-2.17;98.69;103857.19;4996277;28;20371;-78
2023/01/23 09:41:25;;;;;;;28.77;16.03;;;;;;;-2.21;98.44;103850.25;4995382;28;20054;-77
2023/01/23 09:44:06;;;;;;;31.13;15.85;;;;;;;-2.22;98.16;103859.81;4995123;28;20030;-77
2023/01/23 09:46:40;;;;;;;26.17;14.90;;;;;;;-2.33;98.39;103858.97;4995709;28;20027;-76
2023/01/23 09:52:59;;;;;;;30.42;16.48;;;;;;;-2.70;98.44;103795.56;4997654;28;20497;-76
2023/01/23 09:55:47;;;;;;;38.35;18.48;;;;;;;-2.28;99.01;103859.84;4994233;28;20022;-76
2023/01/23 09:58:32;;;;;;;33.27;16.57;;;;;;;-2.19;98.62;103849.34;4993558;28;20073;-77
2023/01/23 10:01:12;;;;;;;31.17;17.48;;;;;;;-2.20;98.32;103837.19;4993993;28;20034;-81
2023/01/23 10:03:39;;;;;;;31.08;16.67;;;;;;;-2.33;97.94;103838.06;4993107;28;20108;-75
2023/01/23 10:06:10;;;;;;;29.98;17.13;;;;;;;-2.32;98.25;103844.16;4994063;28;20454;-77
2023/01/23 10:09:03;;;;;;;34.85;18.55;;;;;;;-2.50;97.79;103832.06;4994189;28;20037;-75
2023/01/23 10:11:44;;;;;;;31.30;18.77;;;;;;;-2.52;99.21;103845.09;4994274;28;20034;-77
2023/01/23 10:14:31;;;;;;;32.00;16.98;;;;;;;-2.58;99.84;103831.22;4993821;28;20030;-75
2023/01/23 10:16:57;;;;;;;30.30;17.50;;;;;;;-2.63;99.90;103830.31;4987288;28;20463;-76
2023/01/23 10:19:36;;;;;;;32.80;15.87;;;;;;;-2.52;100.00;103824.22;4995118;28;20031;-77
2023/01/23 10:22:10;;;;;;;;;;;;;;;-2.46;100.00;103828.56;4992119;28;20029;-76
2023/01/23 10:24:35;;;;;;;31.42;18.95;;;;;;;-2.40;100.00;103818.09;4997312;28;19909;-75
2023/01/23 10:27:17;;;;;;;27.83;15.20;;;;;;;-2.44;99.36;103795.50;4996904;28;20043;-75
2023/01/23 10:29:47;;;;;;;38.70;20.25;;;;;;;-2.61;99.03;103781.59;4979455;28;20415;-73
2023/01/23 10:32:28;;;;;;;30.38;18.88;;;;;;;-2.36;100.00;103817.19;5004411;28;20105;-74
2023/01/23 10:35:17;;;;;;;33.55;18.27;;;;;;;-2.20;99.05;103816.28;4980802;28;20026;-73
2023/01/23 10:37:50;;;;;;;33.30;18.13;;;;;;;-2.17;99.19;103822.38;4997494;28;20033;-75
2023/01/23 10:41:12;;;;;;;34.88;16.35;;;;;;;-2.30;98.26;103817.22;4960868;28;20038;-75
2023/01/23 10:43:13;;;;;;;34.85;20.23;;;;;;;-2.33;99.31;103804.13;4975663;28;20061;-74
2023/01/23 10:45:40;;;;;;;33.08;17.23;;;;;;;-2.45;98.49;103804.19;4997438;28;20038;-74
2023/01/23 10:48:45;;;;;;;40.55;19.73;;;;;;;-2.43;99.36;103805.06;5001320;28;20026;-75
2023/01/23 10:51:29;;;;;;;38.50;18.50;;;;;;;-2.40;99.65;103812.88;5001606;28;20038;-75
2023/01/23 10:54:19;;;;;;;46.92;21.60;;;;;;;-2.41;99.81;103800.69;4999761;28;20018;-75
2023/01/23 10:56:53;;;;;;;42.05;20.95;;;;;;;-2.44;99.65;103800.72;4997156;28;20041;-76
2023/01/23 10:59:53;;;;;;;48.85;23.20;;;;;;;-2.41;99.55;103813.75;4993677;28;20514;-74
2023/01/23 11:02:27;;;;;;;36.90;19.38;;;;;;;-2.68;99.81;103774.69;4992531;28;20080;-74
2023/01/23 11:04:53;;;;;;;38.78;20.27;;;;;;;-2.55;100.00;103803.38;4980818;28;20150;-73
2023/01/23 11:07:30;;;;;;;41.27;18.27;;;;;;;-2.52;100.00;103792.03;4979075;28;20061;-76
2023/01/23 11:10:14;;;;;;;38.92;19.02;;;;;;;-2.45;100.00;103803.31;4977547;28;20077;-73
2023/01/23 11:12:59;;;;;;;30.48;17.88;;;;;;;-2.50;99.67;103774.63;4993863;28;20463;-75
2023/01/23 11:15:32;;;;;;;30.08;17.42;;;;;;;-2.53;98.90;103800.75;4994412;28;20129;-76
2023/01/23 11:18:00;;;;;;;30.90;16.92;;;;;;;-2.69;99.07;103792.06;4994956;28;20030;-78
2023/01/23 11:20:27;;;;;;;26.67;15.45;;;;;;;-2.71;100.00;103791.22;4994316;28;20038;-76
2023/01/23 11:23:02;;;;;;;26.60;15.15;;;;;;;-2.61;100.00;103795.53;4977310;28;20533;-75
2023/01/23 11:25:28;;;;;;;22.45;13.55;;;;;;;-2.54;99.48;103805.09;4993290;28;20126;-77
2023/01/23 11:27:59;;;;;;;28.43;16.77;;;;;;;-2.53;99.71;103795.53;4993534;28;20085;-76
2023/01/23 11:30:33;;;;;;;28.20;15.90;;;;;;;-2.50;98.78;103788.56;4975871;28;20121;-75
2023/01/23 11:33:14;;;;;;;30.45;17.60;;;;;;;-2.60;98.42;103778.16;4995194;28;20030;-77
2023/01/23 11:36:02;;;;;;;30.15;18.40;;;;;;;-2.70;99.17;103766.00;4993702;28;20053;-80
2023/01/23 11:38:37;;;;;;;31.00;17.57;;;;;;;-2.66;99.43;103778.16;4993724;28;20050;-78
2023/01/23 11:41:10;;;;;;;36.38;17.92;;;;;;;-2.69;99.89;103767.72;4993917;28;20162;-76
2023/01/23 11:43:37;;;;;;;34.65;20.13;;;;;;;-2.66;99.97;103780.75;4992869;28;20031;-74
2023/01/23 11:46:23;;;;;;;35.50;17.10;;;;;;;-2.64;100.00;103779.88;4994765;28;20039;-74
2023/01/23 11:49:26;;;;;;;28.92;16.52;;;;;;;-2.51;99.67;103783.34;4993890;28;20458;-76
2023/01/23 11:52:02;;;;;;;29.08;16.30;;;;;;;-2.61;98.26;103771.19;4993129;28;20042;-75
2023/01/23 11:54:55;;;;;;;24.98;13.50;;;;;;;-2.55;98.26;103777.25;4993431;28;20116;-77
2023/01/23 11:57:48;;;;;;;29.02;16.65;;;;;;;-2.87;97.68;103753.88;4993281;28;20088;-76